createdAt,value
2018-12-27T00:00:52.968Z,13.17
2018-12-27T00:03:21.794Z,12.63
2018-12-27T00:05:50.902Z,13.33
2018-12-27T00:08:19.858Z,11.93
2018-12-27T00:10:48.789Z,11.10
2018-12-27T00:13:17.993Z,11.50
2018-12-27T00:15:46.781Z,11.10
2018-12-27T00:18:15.896Z,11.10
2018-12-27T00:20:44.841Z,10.67
2018-12-27T00:23:13.684Z,10.70
2018-12-27T00:25:42.794Z,10.47
2018-12-27T00:28:11.689Z,10.73
2018-12-27T00:30:40.705Z,10.73
2018-12-27T00:33:09.757Z,11.37
2018-12-27T00:35:39.261Z,11.10
2018-12-27T00:38:08.288Z,10.00
2018-12-27T00:40:37.533Z,10.87
2018-12-27T00:43:06.551Z,11.47
2018-12-27T00:45:35.613Z,10.97
2018-12-27T00:48:04.637Z,10.60
2018-12-27T00:50:33.669Z,9.37
2018-12-27T00:53:02.649Z,11.37
2018-12-27T00:55:31.666Z,10.77
2018-12-27T00:58:00.666Z,11.60
2018-12-27T01:00:29.670Z,10.97
2018-12-27T01:02:58.654Z,10.00
2018-12-27T01:05:27.923Z,10.70
2018-12-27T01:07:56.905Z,10.33
2018-12-27T01:10:26.189Z,10.83
2018-12-27T01:12:55.141Z,11.03
2018-12-27T01:15:24.130Z,10.93
2018-12-27T01:17:54.150Z,10.73
2018-12-27T01:20:23.126Z,9.80
2018-12-27T01:22:52.099Z,10.80
2018-12-27T01:25:21.091Z,10.60
2018-12-27T01:27:50.110Z,11.87
2018-12-27T01:30:19.073Z,10.83
2018-12-27T01:32:48.398Z,10.60
2018-12-27T01:35:17.415Z,10.47
2018-12-27T01:37:46.634Z,9.90
2018-12-27T01:40:15.657Z,11.13
2018-12-27T01:42:44.691Z,10.77
2018-12-27T01:45:13.802Z,11.50
2018-12-27T01:47:42.773Z,11.73
2018-12-27T01:50:12.253Z,11.43
2018-12-27T01:52:41.293Z,9.70
2018-12-27T01:55:10.250Z,10.40
2018-12-27T01:57:39.253Z,12.47
2018-12-27T02:00:08.392Z,11.77
2018-12-27T02:02:37.414Z,10.67
2018-12-27T02:05:06.481Z,10.10
2018-12-27T02:07:35.487Z,10.87
2018-12-27T02:10:04.514Z,10.73
2018-12-27T02:12:33.751Z,11.80
2018-12-27T02:15:02.759Z,11.00
2018-12-27T02:17:31.898Z,12.60
2018-12-27T02:20:00.902Z,11.83
2018-12-27T02:22:30.422Z,10.93
2018-12-27T02:24:59.421Z,10.97
2018-12-27T02:27:28.542Z,10.30
2018-12-27T02:29:57.482Z,10.23
2018-12-27T02:32:26.774Z,11.67
2018-12-27T02:34:55.869Z,12.47
2018-12-27T02:37:24.830Z,11.20
2018-12-27T02:39:53.827Z,10.43
2018-12-27T02:42:22.841Z,10.53
2018-12-27T02:44:51.855Z,10.53
2018-12-27T02:47:20.863Z,10.77
2018-12-27T02:49:49.830Z,10.33
2018-12-27T02:52:18.789Z,11.27
2018-12-27T02:54:48.028Z,11.20
2018-12-27T02:57:17.042Z,11.60
2018-12-27T02:59:46.034Z,12.43
2018-12-27T03:02:14.999Z,10.93
2018-12-27T03:04:44.069Z,10.13
2018-12-27T03:07:13.304Z,12.03
2018-12-27T03:09:42.300Z,12.17
2018-12-27T03:12:11.315Z,11.37
2018-12-27T03:14:40.306Z,9.83
2018-12-27T03:17:09.334Z,9.27
2018-12-27T03:19:38.426Z,10.27
2018-12-27T03:22:07.434Z,10.40
2018-12-27T03:24:36.392Z,9.63
2018-12-27T03:27:05.436Z,11.13
2018-12-27T03:29:34.407Z,10.63
2018-12-27T03:32:03.480Z,11.40
2018-12-27T03:34:32.501Z,11.13
2018-12-27T03:37:01.526Z,10.60
2018-12-27T03:39:30.556Z,10.53
2018-12-27T03:41:59.545Z,10.50
2018-12-27T03:44:28.494Z,10.07
2018-12-27T03:46:57.523Z,10.10
2018-12-27T03:49:26.503Z,11.03
2018-12-27T03:51:55.790Z,11.17
2018-12-27T03:54:24.794Z,11.17
2018-12-27T03:56:53.788Z,10.10
2018-12-27T03:59:22.801Z,10.30
2018-12-27T04:01:52.068Z,10.17
2018-12-27T04:04:21.044Z,9.47
2018-12-27T04:06:50.023Z,10.30
2018-12-27T04:09:19.282Z,10.03
2018-12-27T04:11:48.501Z,10.27
2018-12-27T04:14:17.513Z,11.10
2018-12-27T04:16:46.342Z,10.53
2018-12-27T04:19:15.384Z,10.87
2018-12-27T04:21:44.294Z,10.57
2018-12-27T04:24:14.003Z,11.17
2018-12-27T04:26:42.829Z,10.80
2018-12-27T04:29:11.937Z,11.57
2018-12-27T04:31:41.040Z,11.40
2018-12-27T04:34:10.888Z,11.07
2018-12-27T04:36:41.037Z,11.80
2018-12-27T04:39:09.873Z,11.23
2018-12-27T04:41:39.297Z,11.77
2018-12-27T04:44:08.520Z,10.90
2018-12-27T04:46:37.734Z,11.37
2018-12-27T04:49:06.603Z,10.77
2018-12-27T04:51:35.477Z,12.13
2018-12-27T04:54:04.450Z,11.20
2018-12-27T04:56:33.506Z,11.57
2018-12-27T04:59:02.479Z,11.70
2018-12-27T05:01:31.277Z,12.37
2018-12-27T05:04:00.370Z,11.37
2018-12-27T05:06:29.170Z,10.73
2018-12-27T05:08:58.094Z,11.90
2018-12-27T05:11:27.026Z,12.80
2018-12-27T05:13:55.830Z,11.60
2018-12-27T05:16:24.696Z,11.60
2018-12-27T05:18:53.495Z,11.00
2018-12-27T05:21:22.321Z,10.03
2018-12-27T05:23:51.244Z,9.97
2018-12-27T05:26:20.143Z,11.20
2018-12-27T05:28:49.130Z,11.50
2018-12-27T05:31:18.047Z,11.27
2018-12-27T05:33:47.065Z,11.80
2018-12-27T05:36:15.939Z,10.90
2018-12-27T05:38:44.825Z,12.40
2018-12-27T05:41:13.878Z,11.60
2018-12-27T05:43:42.782Z,11.53
2018-12-27T05:46:11.623Z,10.23
2018-12-27T05:48:40.550Z,12.03
2018-12-27T05:51:09.428Z,12.40
2018-12-27T05:53:38.218Z,12.00
2018-12-27T05:56:07.124Z,11.90
2018-12-27T05:58:35.994Z,11.23
2018-12-27T06:01:04.865Z,11.20
2018-12-27T06:03:33.724Z,11.47
2018-12-27T06:06:02.550Z,10.43
2018-12-27T06:08:31.457Z,11.00
2018-12-27T06:11:00.523Z,10.87
2018-12-27T06:13:29.383Z,11.10
2018-12-27T06:15:58.463Z,10.33
2018-12-27T06:18:27.310Z,10.37
2018-12-27T06:20:56.222Z,10.47
2018-12-27T06:23:25.291Z,10.37
2018-12-27T06:25:54.178Z,11.87
2018-12-27T06:28:23.115Z,10.47
2018-12-27T06:30:52.052Z,10.67
2018-12-27T06:33:20.879Z,11.13
2018-12-27T06:35:49.699Z,11.17
2018-12-27T06:38:18.493Z,10.60
2018-12-27T06:40:47.359Z,11.67
2018-12-27T06:43:16.286Z,10.87
2018-12-27T06:45:45.158Z,10.40
2018-12-27T06:48:14.037Z,10.67
2018-12-27T06:50:42.978Z,10.80
2018-12-27T06:53:12.045Z,11.27
2018-12-27T06:55:41.227Z,10.60
2018-12-27T06:58:10.060Z,10.57
2018-12-27T07:00:38.909Z,9.73
2018-12-27T07:03:07.757Z,10.13
2018-12-27T07:05:36.659Z,9.83
2018-12-27T07:08:05.696Z,10.80
2018-12-27T07:10:34.635Z,10.33
2018-12-27T07:13:03.493Z,11.30
2018-12-27T07:15:32.342Z,10.10
2018-12-27T07:18:01.135Z,10.57
2018-12-27T07:20:30.008Z,10.30
2018-12-27T07:22:58.867Z,10.77
2018-12-27T07:25:27.682Z,9.13
2018-12-27T07:27:56.523Z,9.40
2018-12-27T07:30:25.533Z,10.43
2018-12-27T07:32:54.661Z,10.13
2018-12-27T07:35:23.575Z,10.83
2018-12-27T07:37:52.515Z,10.27
2018-12-27T07:40:21.416Z,10.40
2018-12-27T07:42:50.330Z,9.63
2018-12-27T07:45:19.187Z,10.00
2018-12-27T07:47:48.009Z,10.40
2018-12-27T07:50:17.061Z,10.43
2018-12-27T07:52:45.967Z,9.70
2018-12-27T07:55:14.867Z,9.87
2018-12-27T07:57:43.958Z,9.57
2018-12-27T08:00:13.103Z,9.90
2018-12-27T08:02:42.431Z,10.60
2018-12-27T08:05:11.329Z,10.13
2018-12-27T08:07:40.435Z,10.80
2018-12-27T08:10:09.329Z,10.40
2018-12-27T08:12:38.380Z,10.17
2018-12-27T08:15:07.702Z,10.47
2018-12-27T08:17:36.523Z,10.90
2018-12-27T08:20:05.768Z,10.80
2018-12-27T08:22:34.706Z,10.13
2018-12-27T08:25:03.726Z,11.03
2018-12-27T08:27:32.582Z,11.57
2018-12-27T08:30:01.513Z,11.30
2018-12-27T08:32:30.434Z,12.33
2018-12-27T08:34:59.265Z,11.80
2018-12-27T08:37:28.125Z,11.57
2018-12-27T08:39:57.091Z,11.17
2018-12-27T08:42:26.123Z,11.27
2018-12-27T08:44:54.955Z,10.90
2018-12-27T08:47:23.778Z,11.43
2018-12-27T08:49:52.554Z,10.50
2018-12-27T08:52:21.370Z,12.17
2018-12-27T08:54:50.422Z,10.93
2018-12-27T08:57:19.366Z,11.13
2018-12-27T08:59:48.275Z,10.97
2018-12-27T09:02:17.121Z,10.67
2018-12-27T09:04:46.245Z,12.20
2018-12-27T09:07:15.288Z,11.60
2018-12-27T09:09:44.459Z,10.73
2018-12-27T09:12:13.422Z,11.80
2018-12-27T09:14:42.364Z,11.60
2018-12-27T09:17:11.331Z,10.33
2018-12-27T09:19:40.246Z,11.77
2018-12-27T09:22:09.125Z,10.90
2018-12-27T09:24:37.979Z,12.53
2018-12-27T09:27:06.917Z,10.83
2018-12-27T09:29:36.195Z,10.27
2018-12-27T09:32:05.011Z,10.87
2018-12-27T09:34:33.912Z,11.03
2018-12-27T09:37:02.813Z,10.97
2018-12-27T09:39:31.635Z,10.07
2018-12-27T09:42:00.558Z,12.20
2018-12-27T09:44:29.487Z,11.83
2018-12-27T09:46:58.428Z,10.83
2018-12-27T09:49:27.402Z,10.83
2018-12-27T09:52:01.978Z,11.57
2018-12-27T09:54:27.135Z,11.20
2018-12-27T09:56:56.159Z,10.90
2018-12-27T09:59:25.123Z,10.23
2018-12-27T10:01:54.311Z,9.50
2018-12-27T10:04:23.130Z,9.87
2018-12-27T10:06:52.063Z,9.57
2018-12-27T10:09:20.894Z,9.53
2018-12-27T10:11:49.827Z,9.40
2018-12-27T10:14:18.778Z,9.67
2018-12-27T10:16:47.715Z,9.63
2018-12-27T10:19:16.786Z,9.63
2018-12-27T10:21:45.722Z,9.97
2018-12-27T10:24:14.550Z,9.77
2018-12-27T10:26:43.903Z,10.37
2018-12-27T10:29:12.753Z,9.73
2018-12-27T10:31:41.661Z,9.27
2018-12-27T10:34:10.620Z,9.57
2018-12-27T10:36:40.823Z,9.57
2018-12-27T10:39:11.786Z,8.80
2018-12-27T10:41:40.730Z,9.20
2018-12-27T10:44:09.744Z,8.90
2018-12-27T10:46:38.559Z,8.83
2018-12-27T10:49:07.437Z,9.13
2018-12-27T10:51:36.242Z,8.60
2018-12-27T10:54:05.191Z,8.73
2018-12-27T10:56:34.076Z,9.03
2018-12-27T10:59:02.894Z,8.43
2018-12-27T11:01:31.722Z,8.70
2018-12-27T11:04:00.542Z,8.03
2018-12-27T11:06:29.471Z,8.77
2018-12-27T11:08:58.374Z,8.73
2018-12-27T11:11:27.523Z,10.00
2018-12-27T11:13:56.362Z,8.40
2018-12-27T11:16:25.219Z,8.87
2018-12-27T11:18:54.050Z,9.50
2018-12-27T11:21:22.870Z,9.20
2018-12-27T11:23:51.696Z,9.50
2018-12-27T11:26:20.638Z,9.70
2018-12-27T11:28:49.632Z,10.10
2018-12-27T11:31:18.448Z,10.17
2018-12-27T11:33:47.533Z,9.73
2018-12-27T11:36:17.332Z,9.30
2018-12-27T11:38:46.723Z,10.00
2018-12-27T11:41:15.558Z,8.60
2018-12-27T11:43:44.596Z,9.27
2018-12-27T11:46:13.541Z,9.40
2018-12-27T11:48:42.563Z,9.10
2018-12-27T11:51:11.687Z,9.43
2018-12-27T11:53:40.579Z,9.33
2018-12-27T11:56:09.482Z,9.10
2018-12-27T11:58:38.523Z,8.67
2018-12-27T12:01:07.995Z,8.40
2018-12-27T12:03:36.894Z,8.13
2018-12-27T12:06:05.894Z,8.40
2018-12-27T12:08:34.811Z,8.73
2018-12-27T12:11:03.949Z,9.10
2018-12-27T12:13:32.786Z,8.47
2018-12-27T12:16:01.693Z,9.33
2018-12-27T12:18:30.770Z,8.40
2018-12-27T12:20:59.949Z,8.63
2018-12-27T12:23:28.987Z,8.13
2018-12-27T12:25:58.052Z,8.57
2018-12-27T12:28:27.292Z,9.10
2018-12-27T12:30:56.352Z,8.53
2018-12-27T12:33:27.670Z,8.13
2018-12-27T12:35:58.041Z,8.57
2018-12-27T12:38:29.004Z,8.87
2018-12-27T12:41:00.300Z,8.67
2018-12-27T12:43:29.575Z,7.70
2018-12-27T12:45:59.626Z,8.57
2018-12-27T12:48:28.871Z,8.50
2018-12-27T12:50:58.878Z,7.97
2018-12-27T12:53:27.955Z,8.10
2018-12-27T12:55:56.818Z,7.67
2018-12-27T12:58:25.791Z,8.47
2018-12-27T13:00:54.723Z,7.77
2018-12-27T13:03:23.589Z,8.40
2018-12-27T13:05:52.664Z,8.07
2018-12-27T13:08:21.429Z,7.57
2018-12-27T13:10:52.457Z,8.10
2018-12-27T13:13:21.536Z,7.27
2018-12-27T13:15:50.682Z,7.27
2018-12-27T13:18:19.663Z,8.03
2018-12-27T13:20:48.744Z,7.50
2018-12-27T13:23:17.601Z,7.27
2018-12-27T13:25:47.157Z,7.20
2018-12-27T13:28:16.674Z,8.60
2018-12-27T13:30:45.587Z,7.57
2018-12-27T13:33:14.627Z,7.60
2018-12-27T13:35:43.710Z,7.60
2018-12-27T13:38:13.710Z,7.60
2018-12-27T13:40:42.786Z,6.63
2018-12-27T13:43:11.746Z,7.23
2018-12-27T13:45:40.779Z,7.77
2018-12-27T13:48:09.797Z,7.67
2018-12-27T13:50:38.912Z,11.17
2018-12-27T13:53:07.867Z,10.67
2018-12-27T13:55:36.801Z,11.53
2018-12-27T13:58:05.754Z,13.40
2018-12-27T14:00:34.984Z,31.83
2018-12-27T14:03:03.891Z,14.37
2018-12-27T14:05:32.744Z,12.03
2018-12-27T14:08:01.621Z,11.37
2018-12-27T14:10:30.492Z,12.20
2018-12-27T14:12:59.371Z,8.80
2018-12-27T14:15:28.203Z,9.50
2018-12-27T14:17:57.139Z,10.57
2018-12-27T14:20:26.267Z,12.30
2018-12-27T14:22:55.179Z,12.60
2018-12-27T14:25:24.098Z,11.10
2018-12-27T14:27:53.111Z,8.00
2018-12-27T14:30:22.017Z,7.50
2018-12-27T14:32:50.844Z,8.17
2018-12-27T14:35:19.842Z,7.33
2018-12-27T14:37:48.831Z,7.50
2018-12-27T14:40:17.731Z,7.27
2018-12-27T14:42:46.711Z,6.63
2018-12-27T14:45:15.538Z,15.30
2018-12-27T14:47:44.455Z,23.77
2018-12-27T14:50:13.301Z,16.03
2018-12-27T14:52:42.162Z,9.50
2018-12-27T14:55:11.089Z,8.20
2018-12-27T14:57:39.922Z,11.47
2018-12-27T15:00:10.476Z,10.70
2018-12-27T15:02:39.445Z,7.77
2018-12-27T15:05:08.482Z,7.83
2018-12-27T15:07:37.571Z,8.50
2018-12-27T15:10:08.525Z,7.83
2018-12-27T15:12:37.543Z,8.23
2018-12-27T15:15:06.433Z,7.90
2018-12-27T15:17:35.309Z,8.00
2018-12-27T15:20:04.635Z,8.57
2018-12-27T15:22:33.483Z,8.07
2018-12-27T15:25:02.625Z,8.13
2018-12-27T15:27:31.602Z,8.37
2018-12-27T15:30:00.699Z,7.97
2018-12-27T15:32:29.707Z,8.63
2018-12-27T15:34:58.811Z,8.63
2018-12-27T15:37:27.733Z,8.90
2018-12-27T15:39:56.623Z,8.90
2018-12-27T15:42:25.611Z,8.60
2018-12-27T15:44:54.466Z,9.27
2018-12-27T15:47:23.555Z,7.60
2018-12-27T15:49:52.435Z,8.00
2018-12-27T15:52:21.330Z,8.47
2018-12-27T15:54:50.224Z,12.47
2018-12-27T15:57:19.463Z,9.90
2018-12-27T15:59:48.288Z,9.73
2018-12-27T16:02:17.119Z,9.00
2018-12-27T16:04:46.127Z,9.53
2018-12-27T16:07:15.217Z,8.73
2018-12-27T16:09:44.062Z,9.53
2018-12-27T16:12:13.006Z,8.90
2018-12-27T16:14:44.546Z,9.10
2018-12-27T16:17:12.389Z,8.20
2018-12-27T16:19:41.290Z,8.47
2018-12-27T16:22:10.540Z,9.57
2018-12-27T16:24:39.654Z,8.53
2018-12-27T16:27:09.509Z,7.73
2018-12-27T16:29:38.582Z,10.20
2018-12-27T16:32:07.535Z,7.77
2018-12-27T16:34:36.604Z,8.60
2018-12-27T16:37:08.974Z,8.60
2018-12-27T16:39:36.363Z,8.97
2018-12-27T16:42:05.503Z,8.77
2018-12-27T16:44:34.714Z,8.10
2018-12-27T16:47:03.964Z,9.33
2018-12-27T16:49:32.830Z,11.93
2018-12-27T16:52:01.790Z,11.67
2018-12-27T16:54:31.531Z,12.10
2018-12-27T16:57:00.656Z,14.07
2018-12-27T16:59:29.523Z,13.47
2018-12-27T17:01:58.488Z,19.97
2018-12-27T17:04:28.477Z,16.23
2018-12-27T17:06:57.417Z,15.70
2018-12-27T17:09:26.401Z,16.17
2018-12-27T17:11:55.692Z,16.87
2018-12-27T17:14:24.823Z,14.90
2018-12-27T17:16:53.866Z,17.40
2018-12-27T17:19:22.839Z,15.43
2018-12-27T17:21:52.527Z,14.23
2018-12-27T17:24:21.490Z,15.33
2018-12-27T17:26:50.422Z,13.70
2018-12-27T17:29:19.532Z,12.03
2018-12-27T17:31:48.433Z,12.17
2018-12-27T17:34:17.439Z,10.43
2018-12-27T17:36:46.354Z,10.07
2018-12-27T17:39:15.242Z,8.23
2018-12-27T17:41:44.101Z,9.47
2018-12-27T17:44:13.015Z,9.73
2018-12-27T17:46:42.128Z,9.13
2018-12-27T17:49:12.167Z,9.97
2018-12-27T17:51:41.349Z,9.97
2018-12-27T17:54:10.497Z,10.03
2018-12-27T17:56:40.419Z,10.80
2018-12-27T17:59:09.670Z,10.53
2018-12-27T18:01:38.576Z,9.73
2018-12-27T18:04:07.846Z,8.80
2018-12-27T18:06:37.282Z,8.83
2018-12-27T18:09:07.920Z,10.57
2018-12-27T18:11:37.068Z,10.60
2018-12-27T18:14:14.253Z,10.73
2018-12-27T18:16:46.658Z,10.63
2018-12-27T18:19:17.910Z,12.33
2018-12-27T18:21:47.044Z,12.93
2018-12-27T18:24:16.393Z,11.17
2018-12-27T18:26:45.731Z,9.57
2018-12-27T18:29:15.508Z,10.00
2018-12-27T18:31:44.744Z,9.73
2018-12-27T18:34:13.812Z,10.87
2018-12-27T18:36:42.815Z,10.63
2018-12-27T18:39:31.233Z,9.90
2018-12-27T18:42:00.713Z,10.50
2018-12-27T18:44:29.683Z,10.40
2018-12-27T18:46:58.753Z,10.83
2018-12-27T18:49:27.659Z,10.40
2018-12-27T18:51:56.747Z,10.50
2018-12-27T18:54:25.639Z,10.97
2018-12-27T18:56:54.690Z,9.30
2018-12-27T18:59:23.550Z,10.70
2018-12-27T19:01:52.506Z,11.03
2018-12-27T19:04:21.435Z,12.43
2018-12-27T19:06:50.534Z,14.07
2018-12-27T19:09:19.406Z,13.57
2018-12-27T19:12:24.066Z,15.43
2018-12-27T19:14:54.955Z,15.37
2018-12-27T19:17:28.275Z,14.57
2018-12-27T19:19:57.326Z,12.60
2018-12-27T19:22:36.797Z,12.00
2018-12-27T19:25:06.078Z,11.13
2018-12-27T19:27:35.101Z,12.40
2018-12-27T19:30:04.518Z,13.20
2018-12-27T19:32:33.654Z,12.30
2018-12-27T19:35:02.984Z,12.63
2018-12-27T19:37:32.359Z,12.63
2018-12-27T19:40:01.492Z,13.63
2018-12-27T19:42:30.654Z,13.10
2018-12-27T19:44:59.829Z,14.40
2018-12-27T19:47:28.919Z,13.47
2018-12-27T19:49:58.122Z,13.13
2018-12-27T19:52:27.309Z,13.10
2018-12-27T19:54:56.329Z,13.87
2018-12-27T19:57:25.179Z,12.77
2018-12-27T19:59:54.262Z,17.33
2018-12-27T20:02:23.275Z,22.00
2018-12-27T20:04:52.306Z,16.83
2018-12-27T20:07:21.464Z,18.90
2018-12-27T20:09:50.953Z,24.83
2018-12-27T20:12:20.055Z,16.60
2018-12-27T20:14:48.989Z,17.40
2018-12-27T20:17:17.861Z,16.60
2018-12-27T20:19:46.885Z,15.33
2018-12-27T20:22:16.142Z,16.00
2018-12-27T20:24:45.098Z,17.00
2018-12-27T20:27:14.172Z,22.97
2018-12-27T20:29:43.202Z,19.27
2018-12-27T20:32:12.460Z,19.37
2018-12-27T20:34:41.657Z,20.07
2018-12-27T20:37:10.650Z,17.30
2018-12-27T20:39:39.641Z,16.70
2018-12-27T20:42:08.627Z,14.80
2018-12-27T20:44:37.553Z,15.30
2018-12-27T20:47:06.831Z,17.67
2018-12-27T20:49:35.889Z,17.00
2018-12-27T20:52:05.081Z,14.37
2018-12-27T20:54:33.947Z,14.63
2018-12-27T20:57:03.055Z,14.77
2018-12-27T20:59:32.010Z,13.97
2018-12-27T21:02:01.006Z,13.53
2018-12-27T21:04:29.874Z,13.97
2018-12-27T21:06:59.715Z,12.53
2018-12-27T21:09:28.834Z,13.17
2018-12-27T21:11:57.979Z,13.27
2018-12-27T21:14:27.940Z,13.00
2018-12-27T21:16:56.800Z,13.23
2018-12-27T21:19:25.716Z,13.07
2018-12-27T21:21:54.665Z,13.43
2018-12-27T21:24:23.601Z,13.37
2018-12-27T21:26:52.603Z,12.00
2018-12-27T21:29:21.630Z,12.87
2018-12-27T21:31:50.592Z,12.70
2018-12-27T21:34:19.516Z,12.10
2018-12-27T21:36:48.495Z,12.90
2018-12-27T21:39:17.566Z,13.50
2018-12-27T21:41:46.465Z,12.73
2018-12-27T21:44:15.346Z,13.10
2018-12-27T21:46:44.414Z,13.37
2018-12-27T21:49:15.399Z,13.77
2018-12-27T21:51:44.280Z,12.17
2018-12-27T21:54:13.444Z,13.37
2018-12-27T21:56:42.421Z,13.30
2018-12-27T21:59:11.401Z,15.70
2018-12-27T22:01:40.351Z,13.83
2018-12-27T22:04:09.237Z,13.10
2018-12-27T22:06:38.238Z,13.30
2018-12-27T22:09:07.595Z,11.83
2018-12-27T22:11:36.594Z,12.17
2018-12-27T22:14:05.533Z,12.23
2018-12-27T22:16:34.466Z,13.57
2018-12-27T22:19:03.462Z,13.10
2018-12-27T22:21:32.358Z,12.77
2018-12-27T22:24:01.291Z,11.17
2018-12-27T22:26:30.378Z,12.37
2018-12-27T22:28:59.241Z,11.67
2018-12-27T22:31:28.226Z,11.63
2018-12-27T22:33:57.492Z,10.97
2018-12-27T22:36:26.421Z,11.17
2018-12-27T22:38:55.380Z,10.70
2018-12-27T22:41:24.612Z,10.43
2018-12-27T22:43:53.734Z,10.30
2018-12-27T22:46:24.319Z,12.20
2018-12-27T22:48:55.697Z,12.77
2018-12-27T22:51:25.036Z,12.73
2018-12-27T22:53:56.143Z,13.03
2018-12-27T22:56:27.909Z,12.33
2018-12-27T22:58:57.772Z,13.50
2018-12-27T23:01:28.365Z,12.47
2018-12-27T23:03:58.036Z,12.03
2018-12-27T23:06:27.326Z,11.63
2018-12-27T23:08:56.256Z,10.57
2018-12-27T23:11:26.573Z,11.73
2018-12-27T23:13:55.758Z,9.90
2018-12-27T23:16:24.609Z,10.40
2018-12-27T23:18:54.374Z,10.40
2018-12-27T23:21:23.306Z,11.03
2018-12-27T23:23:52.147Z,11.10
2018-12-27T23:26:21.068Z,10.77
2018-12-27T23:28:49.877Z,10.87
2018-12-27T23:31:18.941Z,10.90
2018-12-27T23:33:47.881Z,12.00
2018-12-27T23:36:16.766Z,11.37
2018-12-27T23:38:50.243Z,10.40
2018-12-27T23:41:16.334Z,11.27
2018-12-27T23:43:45.269Z,10.53
2018-12-27T23:46:14.081Z,11.23
2018-12-27T23:48:43.064Z,10.27
2018-12-27T23:51:12.072Z,11.20
2018-12-27T23:53:41.030Z,11.27
2018-12-27T23:56:10.110Z,11.53
2018-12-27T23:58:39.103Z,10.93
